sensor_id;sensor_type;location;lat;lon;timestamp;P1;durP1;ratioP1;P2;durP2;ratioP2
74415;SDS011;62850;42.428;25.618;2024-02-28T00:01:29;18.10;;;6.30;;
74415;SDS011;62850;42.428;25.618;2024-02-28T00:03:55;11.38;;;5.03;;
74415;SDS011;62850;42.428;25.618;2024-02-28T00:06:20;11.65;;;5.05;;
74415;SDS011;62850;42.428;25.618;2024-02-28T00:08:46;17.42;;;5.65;;
74415;SDS011;62850;42.428;25.618;2024-02-28T00:11:11;15.85;;;5.95;;
74415;SDS011;62850;42.428;25.618;2024-02-28T00:13:37;16.58;;;6.20;;
74415;SDS011;62850;42.428;25.618;2024-02-28T00:16:02;12.40;;;5.70;;
74415;SDS011;62850;42.428;25.618;2024-02-28T00:18:28;16.42;;;6.00;;
74415;SDS011;62850;42.428;25.618;2024-02-28T00:20:55;18.55;;;5.93;;
74415;SDS011;62850;42.428;25.618;2024-02-28T00:23:20;12.65;;;5.22;;
74415;SDS011;62850;42.428;25.618;2024-02-28T00:25:46;14.23;;;5.40;;
74415;SDS011;62850;42.428;25.618;2024-02-28T00:28:11;15.43;;;5.70;;
74415;SDS011;62850;42.428;25.618;2024-02-28T00:30:37;13.48;;;5.10;;
74415;SDS011;62850;42.428;25.618;2024-02-28T00:33:02;17.25;;;5.93;;
74415;SDS011;62850;42.428;25.618;2024-02-28T00:35:32;12.93;;;4.75;;
74415;SDS011;62850;42.428;25.618;2024-02-28T00:37:59;12.95;;;5.00;;
74415;SDS011;62850;42.428;25.618;2024-02-28T00:40:25;13.77;;;5.68;;
74415;SDS011;62850;42.428;25.618;2024-02-28T00:42:50;13.80;;;4.85;;
74415;SDS011;62850;42.428;25.618;2024-02-28T00:45:16;13.38;;;4.57;;
74415;SDS011;62850;42.428;25.618;2024-02-28T00:47:42;11.50;;;5.57;;
74415;SDS011;62850;42.428;25.618;2024-02-28T00:50:07;16.60;;;4.85;;
74415;SDS011;62850;42.428;25.618;2024-02-28T00:52:33;13.15;;;5.47;;
74415;SDS011;62850;42.428;25.618;2024-02-28T00:54:59;10.57;;;4.68;;
74415;SDS011;62850;42.428;25.618;2024-02-28T00:57:24;9.98;;;4.07;;
74415;SDS011;62850;42.428;25.618;2024-02-28T00:59:50;12.85;;;5.38;;
74415;SDS011;62850;42.428;25.618;2024-02-28T01:02:16;16.67;;;5.18;;
74415;SDS011;62850;42.428;25.618;2024-02-28T01:04:41;12.27;;;4.18;;
74415;SDS011;62850;42.428;25.618;2024-02-28T01:07:07;14.38;;;4.68;;
74415;SDS011;62850;42.428;25.618;2024-02-28T01:09:32;13.07;;;4.45;;
74415;SDS011;62850;42.428;25.618;2024-02-28T01:11:58;12.85;;;4.80;;
74415;SDS011;62850;42.428;25.618;2024-02-28T01:14:24;11.18;;;4.80;;
74415;SDS011;62850;42.428;25.618;2024-02-28T01:16:49;17.80;;;4.97;;
74415;SDS011;62850;42.428;25.618;2024-02-28T01:19:15;15.95;;;5.47;;
74415;SDS011;62850;42.428;25.618;2024-02-28T01:21:41;18.40;;;6.20;;
74415;SDS011;62850;42.428;25.618;2024-02-28T01:24:06;13.68;;;5.20;;
74415;SDS011;62850;42.428;25.618;2024-02-28T01:26:32;12.50;;;5.40;;
74415;SDS011;62850;42.428;25.618;2024-02-28T01:28:57;12.68;;;5.43;;
74415;SDS011;62850;42.428;25.618;2024-02-28T01:31:23;16.33;;;5.65;;
74415;SDS011;62850;42.428;25.618;2024-02-28T01:33:48;15.05;;;5.40;;
74415;SDS011;62850;42.428;25.618;2024-02-28T01:36:14;11.68;;;5.57;;
74415;SDS011;62850;42.428;25.618;2024-02-28T01:38:39;14.18;;;5.95;;
74415;SDS011;62850;42.428;25.618;2024-02-28T01:41:05;14.15;;;5.60;;
74415;SDS011;62850;42.428;25.618;2024-02-28T01:43:31;13.18;;;5.13;;
74415;SDS011;62850;42.428;25.618;2024-02-28T01:45:57;14.68;;;6.03;;
74415;SDS011;62850;42.428;25.618;2024-02-28T01:48:29;13.48;;;5.88;;
74415;SDS011;62850;42.428;25.618;2024-02-28T01:50:55;15.13;;;6.30;;
74415;SDS011;62850;42.428;25.618;2024-02-28T01:53:20;13.70;;;5.43;;
74415;SDS011;62850;42.428;25.618;2024-02-28T01:55:47;16.95;;;5.38;;
74415;SDS011;62850;42.428;25.618;2024-02-28T01:58:12;15.35;;;5.53;;
74415;SDS011;62850;42.428;25.618;2024-02-28T02:00:38;10.50;;;4.70;;
74415;SDS011;62850;42.428;25.618;2024-02-28T02:03:04;12.95;;;5.25;;
74415;SDS011;62850;42.428;25.618;2024-02-28T02:05:30;13.20;;;5.55;;
74415;SDS011;62850;42.428;25.618;2024-02-28T02:07:58;14.27;;;5.55;;
74415;SDS011;62850;42.428;25.618;2024-02-28T02:10:27;14.93;;;4.93;;
74415;SDS011;62850;42.428;25.618;2024-02-28T02:12:53;11.63;;;4.53;;
74415;SDS011;62850;42.428;25.618;2024-02-28T02:15:18;17.55;;;5.13;;
74415;SDS011;62850;42.428;25.618;2024-02-28T02:17:44;13.43;;;4.70;;
74415;SDS011;62850;42.428;25.618;2024-02-28T02:20:09;10.00;;;4.65;;
74415;SDS011;62850;42.428;25.618;2024-02-28T02:22:39;13.98;;;5.07;;
74415;SDS011;62850;42.428;25.618;2024-02-28T02:25:04;10.35;;;4.82;;
74415;SDS011;62850;42.428;25.618;2024-02-28T02:27:30;16.10;;;5.53;;
74415;SDS011;62850;42.428;25.618;2024-02-28T02:29:56;10.68;;;5.10;;
74415;SDS011;62850;42.428;25.618;2024-02-28T02:32:21;17.50;;;5.65;;
74415;SDS011;62850;42.428;25.618;2024-02-28T02:34:46;16.73;;;5.05;;
74415;SDS011;62850;42.428;25.618;2024-02-28T02:37:12;14.00;;;5.35;;
74415;SDS011;62850;42.428;25.618;2024-02-28T02:39:37;16.30;;;5.05;;
74415;SDS011;62850;42.428;25.618;2024-02-28T02:42:03;14.50;;;5.45;;
74415;SDS011;62850;42.428;25.618;2024-02-28T02:44:28;12.32;;;5.00;;
74415;SDS011;62850;42.428;25.618;2024-02-28T02:46:54;13.77;;;4.80;;
74415;SDS011;62850;42.428;25.618;2024-02-28T02:49:19;15.70;;;5.20;;
74415;SDS011;62850;42.428;25.618;2024-02-28T02:51:44;11.15;;;5.72;;
74415;SDS011;62850;42.428;25.618;2024-02-28T02:54:10;14.90;;;5.93;;
74415;SDS011;62850;42.428;25.618;2024-02-28T02:56:36;15.70;;;5.80;;
74415;SDS011;62850;42.428;25.618;2024-02-28T02:59:02;16.90;;;6.72;;
74415;SDS011;62850;42.428;25.618;2024-02-28T03:01:27;16.23;;;6.93;;
74415;SDS011;62850;42.428;25.618;2024-02-28T03:03:53;17.73;;;6.25;;
74415;SDS011;62850;42.428;25.618;2024-02-28T03:06:19;20.27;;;7.18;;
74415;SDS011;62850;42.428;25.618;2024-02-28T03:08:44;18.15;;;5.90;;
74415;SDS011;62850;42.428;25.618;2024-02-28T03:11:09;15.20;;;6.10;;
74415;SDS011;62850;42.428;25.618;2024-02-28T03:13:36;20.88;;;6.47;;
74415;SDS011;62850;42.428;25.618;2024-02-28T03:16:03;15.68;;;5.22;;
74415;SDS011;62850;42.428;25.618;2024-02-28T03:18:29;13.27;;;5.55;;
74415;SDS011;62850;42.428;25.618;2024-02-28T03:20:54;15.30;;;5.57;;
74415;SDS011;62850;42.428;25.618;2024-02-28T03:23:20;16.65;;;5.95;;
74415;SDS011;62850;42.428;25.618;2024-02-28T03:25:45;12.57;;;5.50;;
74415;SDS011;62850;42.428;25.618;2024-02-28T03:28:11;12.63;;;5.63;;
74415;SDS011;62850;42.428;25.618;2024-02-28T03:30:36;17.02;;;5.70;;
74415;SDS011;62850;42.428;25.618;2024-02-28T03:33:01;14.57;;;5.65;;
74415;SDS011;62850;42.428;25.618;2024-02-28T03:35:27;11.90;;;5.07;;
74415;SDS011;62850;42.428;25.618;2024-02-28T03:37:52;15.75;;;6.35;;
74415;SDS011;62850;42.428;25.618;2024-02-28T03:40:18;17.25;;;6.30;;
74415;SDS011;62850;42.428;25.618;2024-02-28T03:42:43;21.10;;;8.10;;
74415;SDS011;62850;42.428;25.618;2024-02-28T03:45:08;20.77;;;6.70;;
74415;SDS011;62850;42.428;25.618;2024-02-28T03:47:34;21.08;;;6.50;;
74415;SDS011;62850;42.428;25.618;2024-02-28T03:49:59;14.52;;;6.43;;
74415;SDS011;62850;42.428;25.618;2024-02-28T03:52:27;16.27;;;7.13;;
74415;SDS011;62850;42.428;25.618;2024-02-28T03:54:54;14.18;;;5.97;;
74415;SDS011;62850;42.428;25.618;2024-02-28T03:57:19;18.90;;;5.97;;
74415;SDS011;62850;42.428;25.618;2024-02-28T03:59:45;15.27;;;6.18;;
74415;SDS011;62850;42.428;25.618;2024-02-28T04:02:10;16.90;;;6.30;;
74415;SDS011;62850;42.428;25.618;2024-02-28T04:04:36;13.25;;;6.63;;
74415;SDS011;62850;42.428;25.618;2024-02-28T04:07:01;21.60;;;6.88;;
74415;SDS011;62850;42.428;25.618;2024-02-28T04:09:27;16.23;;;7.07;;
74415;SDS011;62850;42.428;25.618;2024-02-28T04:11:52;17.20;;;6.45;;
74415;SDS011;62850;42.428;25.618;2024-02-28T04:14:18;18.20;;;5.80;;
74415;SDS011;62850;42.428;25.618;2024-02-28T04:16:44;16.35;;;5.28;;
74415;SDS011;62850;42.428;25.618;2024-02-28T04:19:10;16.88;;;6.80;;
74415;SDS011;62850;42.428;25.618;2024-02-28T04:21:36;13.57;;;5.60;;
74415;SDS011;62850;42.428;25.618;2024-02-28T04:24:01;14.95;;;6.47;;
74415;SDS011;62850;42.428;25.618;2024-02-28T04:26:27;12.57;;;6.47;;
74415;SDS011;62850;42.428;25.618;2024-02-28T04:28:52;18.10;;;7.03;;
74415;SDS011;62850;42.428;25.618;2024-02-28T04:31:18;16.52;;;6.95;;
74415;SDS011;62850;42.428;25.618;2024-02-28T04:33:43;16.80;;;7.63;;
74415;SDS011;62850;42.428;25.618;2024-02-28T04:36:08;14.07;;;6.97;;
74415;SDS011;62850;42.428;25.618;2024-02-28T04:38:34;18.73;;;7.35;;
74415;SDS011;62850;42.428;25.618;2024-02-28T04:40:59;14.73;;;7.22;;
74415;SDS011;62850;42.428;25.618;2024-02-28T04:43:25;23.65;;;7.43;;
74415;SDS011;62850;42.428;25.618;2024-02-28T04:45:50;22.55;;;7.70;;
74415;SDS011;62850;42.428;25.618;2024-02-28T04:48:15;22.20;;;7.25;;
74415;SDS011;62850;42.428;25.618;2024-02-28T04:50:41;21.83;;;7.90;;
74415;SDS011;62850;42.428;25.618;2024-02-28T04:53:06;18.00;;;7.15;;
74415;SDS011;62850;42.428;25.618;2024-02-28T04:55:32;18.63;;;8.07;;
74415;SDS011;62850;42.428;25.618;2024-02-28T04:57:57;18.85;;;7.43;;
74415;SDS011;62850;42.428;25.618;2024-02-28T05:00:22;22.30;;;8.20;;
74415;SDS011;62850;42.428;25.618;2024-02-28T05:02:48;20.08;;;6.57;;
74415;SDS011;62850;42.428;25.618;2024-02-28T05:05:13;16.67;;;7.18;;
74415;SDS011;62850;42.428;25.618;2024-02-28T05:07:39;14.63;;;6.90;;
74415;SDS011;62850;42.428;25.618;2024-02-28T05:10:05;17.15;;;6.28;;
74415;SDS011;62850;42.428;25.618;2024-02-28T05:12:31;15.80;;;6.70;;
74415;SDS011;62850;42.428;25.618;2024-02-28T05:14:56;20.02;;;6.55;;
74415;SDS011;62850;42.428;25.618;2024-02-28T05:17:22;18.38;;;6.20;;
74415;SDS011;62850;42.428;25.618;2024-02-28T05:19:47;18.50;;;6.95;;
74415;SDS011;62850;42.428;25.618;2024-02-28T05:22:13;18.70;;;7.70;;
74415;SDS011;62850;42.428;25.618;2024-02-28T05:24:38;24.77;;;6.63;;
74415;SDS011;62850;42.428;25.618;2024-02-28T05:27:04;15.50;;;6.40;;
74415;SDS011;62850;42.428;25.618;2024-02-28T05:29:29;18.90;;;6.55;;
74415;SDS011;62850;42.428;25.618;2024-02-28T05:31:55;15.50;;;7.60;;
74415;SDS011;62850;42.428;25.618;2024-02-28T05:34:20;17.58;;;7.93;;
74415;SDS011;62850;42.428;25.618;2024-02-28T05:36:46;16.55;;;7.80;;
74415;SDS011;62850;42.428;25.618;2024-02-28T05:39:11;22.05;;;7.00;;
74415;SDS011;62850;42.428;25.618;2024-02-28T05:41:37;17.50;;;6.85;;
74415;SDS011;62850;42.428;25.618;2024-02-28T05:44:02;16.98;;;6.80;;
74415;SDS011;62850;42.428;25.618;2024-02-28T05:46:28;18.75;;;7.53;;
74415;SDS011;62850;42.428;25.618;2024-02-28T05:48:53;20.67;;;9.55;;
74415;SDS011;62850;42.428;25.618;2024-02-28T05:51:19;30.77;;;14.77;;
74415;SDS011;62850;42.428;25.618;2024-02-28T05:53:44;32.60;;;15.50;;
74415;SDS011;62850;42.428;25.618;2024-02-28T05:56:10;34.78;;;14.93;;
74415;SDS011;62850;42.428;25.618;2024-02-28T05:58:39;27.70;;;13.88;;
74415;SDS011;62850;42.428;25.618;2024-02-28T06:01:10;23.10;;;13.40;;
74415;SDS011;62850;42.428;25.618;2024-02-28T06:03:36;30.70;;;13.15;;
74415;SDS011;62850;42.428;25.618;2024-02-28T06:06:02;28.30;;;14.02;;
74415;SDS011;62850;42.428;25.618;2024-02-28T06:08:33;20.02;;;10.55;;
74415;SDS011;62850;42.428;25.618;2024-02-28T06:11:00;21.33;;;9.35;;
74415;SDS011;62850;42.428;25.618;2024-02-28T06:13:26;25.63;;;10.15;;
74415;SDS011;62850;42.428;25.618;2024-02-28T06:15:53;17.70;;;8.98;;
74415;SDS011;62850;42.428;25.618;2024-02-28T06:18:18;20.70;;;8.35;;
74415;SDS011;62850;42.428;25.618;2024-02-28T06:20:44;19.00;;;7.47;;
74415;SDS011;62850;42.428;25.618;2024-02-28T06:23:09;18.95;;;6.85;;
74415;SDS011;62850;42.428;25.618;2024-02-28T06:25:34;23.15;;;7.68;;
74415;SDS011;62850;42.428;25.618;2024-02-28T06:28:00;21.42;;;7.65;;
74415;SDS011;62850;42.428;25.618;2024-02-28T06:30:28;122.13;;;40.70;;
74415;SDS011;62850;42.428;25.618;2024-02-28T06:32:53;34.65;;;13.27;;
74415;SDS011;62850;42.428;25.618;2024-02-28T06:35:19;56.40;;;20.05;;
74415;SDS011;62850;42.428;25.618;2024-02-28T06:37:44;43.40;;;12.98;;
74415;SDS011;62850;42.428;25.618;2024-02-28T06:40:14;54.83;;;17.75;;
74415;SDS011;62850;42.428;25.618;2024-02-28T06:42:40;88.05;;;34.72;;
74415;SDS011;62850;42.428;25.618;2024-02-28T06:45:06;18.85;;;7.90;;
74415;SDS011;62850;42.428;25.618;2024-02-28T06:47:32;34.33;;;11.95;;
74415;SDS011;62850;42.428;25.618;2024-02-28T06:49:58;28.13;;;10.95;;
74415;SDS011;62850;42.428;25.618;2024-02-28T06:52:23;22.13;;;8.82;;
74415;SDS011;62850;42.428;25.618;2024-02-28T06:54:48;15.23;;;7.30;;
74415;SDS011;62850;42.428;25.618;2024-02-28T06:57:14;33.50;;;10.15;;
74415;SDS011;62850;42.428;25.618;2024-02-28T06:59:39;42.20;;;15.07;;
74415;SDS011;62850;42.428;25.618;2024-02-28T07:02:05;55.53;;;17.52;;
74415;SDS011;62850;42.428;25.618;2024-02-28T07:04:30;33.15;;;15.30;;
74415;SDS011;62850;42.428;25.618;2024-02-28T07:06:56;190.48;;;49.55;;
74415;SDS011;62850;42.428;25.618;2024-02-28T07:09:21;367.67;;;91.65;;
74415;SDS011;62850;42.428;25.618;2024-02-28T07:11:50;53.53;;;20.00;;
74415;SDS011;62850;42.428;25.618;2024-02-28T07:14:16;50.33;;;18.65;;
74415;SDS011;62850;42.428;25.618;2024-02-28T07:16:41;31.98;;;15.23;;
74415;SDS011;62850;42.428;25.618;2024-02-28T07:19:07;33.38;;;15.57;;
74415;SDS011;62850;42.428;25.618;2024-02-28T07:21:32;34.28;;;17.13;;
74415;SDS011;62850;42.428;25.618;2024-02-28T07:23:58;35.25;;;15.15;;
74415;SDS011;62850;42.428;25.618;2024-02-28T07:26:23;41.28;;;16.88;;
74415;SDS011;62850;42.428;25.618;2024-02-28T07:28:49;26.67;;;14.80;;
74415;SDS011;62850;42.428;25.618;2024-02-28T07:31:18;30.48;;;16.58;;
74415;SDS011;62850;42.428;25.618;2024-02-28T07:33:44;38.20;;;16.63;;
74415;SDS011;62850;42.428;25.618;2024-02-28T07:36:10;41.40;;;17.00;;
74415;SDS011;62850;42.428;25.618;2024-02-28T07:38:36;40.15;;;16.27;;
74415;SDS011;62850;42.428;25.618;2024-02-28T07:41:02;31.92;;;14.43;;
74415;SDS011;62850;42.428;25.618;2024-02-28T07:43:28;29.95;;;13.80;;
74415;SDS011;62850;42.428;25.618;2024-02-28T07:45:53;27.48;;;13.10;;
74415;SDS011;62850;42.428;25.618;2024-02-28T07:48:19;31.80;;;12.82;;
74415;SDS011;62850;42.428;25.618;2024-02-28T07:50:44;47.72;;;18.80;;
74415;SDS011;62850;42.428;25.618;2024-02-28T07:53:10;49.90;;;21.85;;
74415;SDS011;62850;42.428;25.618;2024-02-28T07:55:35;31.35;;;13.40;;
74415;SDS011;62850;42.428;25.618;2024-02-28T07:58:01;30.38;;;12.95;;
74415;SDS011;62850;42.428;25.618;2024-02-28T08:00:26;30.17;;;11.70;;
74415;SDS011;62850;42.428;25.618;2024-02-28T08:02:52;28.15;;;11.48;;
74415;SDS011;62850;42.428;25.618;2024-02-28T08:05:17;25.58;;;11.18;;
74415;SDS011;62850;42.428;25.618;2024-02-28T08:07:43;21.40;;;10.57;;
74415;SDS011;62850;42.428;25.618;2024-02-28T08:10:09;26.80;;;11.02;;
74415;SDS011;62850;42.428;25.618;2024-02-28T08:12:35;35.83;;;12.63;;
74415;SDS011;62850;42.428;25.618;2024-02-28T08:15:01;30.50;;;11.98;;
74415;SDS011;62850;42.428;25.618;2024-02-28T08:17:27;22.63;;;10.35;;
74415;SDS011;62850;42.428;25.618;2024-02-28T08:19:53;24.70;;;11.18;;
74415;SDS011;62850;42.428;25.618;2024-02-28T08:22:19;31.40;;;11.95;;
74415;SDS011;62850;42.428;25.618;2024-02-28T08:24:45;31.35;;;10.30;;
74415;SDS011;62850;42.428;25.618;2024-02-28T08:27:10;25.92;;;11.48;;
74415;SDS011;62850;42.428;25.618;2024-02-28T08:29:36;25.23;;;11.02;;
74415;SDS011;62850;42.428;25.618;2024-02-28T08:32:08;27.92;;;11.57;;
74415;SDS011;62850;42.428;25.618;2024-02-28T08:34:35;23.40;;;10.15;;
74415;SDS011;62850;42.428;25.618;2024-02-28T08:37:00;28.92;;;12.25;;
74415;SDS011;62850;42.428;25.618;2024-02-28T08:39:25;27.42;;;11.90;;
74415;SDS011;62850;42.428;25.618;2024-02-28T08:41:51;23.23;;;12.52;;
74415;SDS011;62850;42.428;25.618;2024-02-28T08:44:16;26.42;;;11.10;;
74415;SDS011;62850;42.428;25.618;2024-02-28T08:46:42;25.80;;;11.95;;
74415;SDS011;62850;42.428;25.618;2024-02-28T08:49:08;27.80;;;12.07;;
74415;SDS011;62850;42.428;25.618;2024-02-28T08:51:33;31.85;;;13.02;;
74415;SDS011;62850;42.428;25.618;2024-02-28T08:53:59;27.33;;;12.68;;
74415;SDS011;62850;42.428;25.618;2024-02-28T08:56:26;31.98;;;13.15;;
74415;SDS011;62850;42.428;25.618;2024-02-28T08:58:52;27.75;;;11.38;;
74415;SDS011;62850;42.428;25.618;2024-02-28T09:01:17;26.40;;;11.73;;
74415;SDS011;62850;42.428;25.618;2024-02-28T09:03:42;27.95;;;11.95;;
74415;SDS011;62850;42.428;25.618;2024-02-28T09:06:08;30.77;;;11.65;;
74415;SDS011;62850;42.428;25.618;2024-02-28T09:08:33;30.10;;;10.85;;
74415;SDS011;62850;42.428;25.618;2024-02-28T09:10:59;23.88;;;10.43;;
74415;SDS011;62850;42.428;25.618;2024-02-28T09:13:25;23.48;;;10.48;;
74415;SDS011;62850;42.428;25.618;2024-02-28T09:15:51;22.92;;;10.68;;
74415;SDS011;62850;42.428;25.618;2024-02-28T09:18:16;29.77;;;11.77;;
74415;SDS011;62850;42.428;25.618;2024-02-28T09:20:42;26.63;;;10.70;;
74415;SDS011;62850;42.428;25.618;2024-02-28T09:23:07;28.08;;;11.82;;
74415;SDS011;62850;42.428;25.618;2024-02-28T09:25:33;25.05;;;11.35;;
74415;SDS011;62850;42.428;25.618;2024-02-28T09:28:00;30.20;;;11.35;;
74415;SDS011;62850;42.428;25.618;2024-02-28T09:30:26;32.30;;;11.38;;
74415;SDS011;62850;42.428;25.618;2024-02-28T09:32:52;27.33;;;11.55;;
74415;SDS011;62850;42.428;25.618;2024-02-28T09:35:17;31.50;;;11.35;;
74415;SDS011;62850;42.428;25.618;2024-02-28T09:37:43;26.20;;;11.73;;
74415;SDS011;62850;42.428;25.618;2024-02-28T09:40:11;29.23;;;12.65;;
74415;SDS011;62850;42.428;25.618;2024-02-28T09:42:37;30.90;;;12.38;;
74415;SDS011;62850;42.428;25.618;2024-02-28T09:45:03;32.95;;;15.45;;
74415;SDS011;62850;42.428;25.618;2024-02-28T09:47:29;32.22;;;15.98;;
74415;SDS011;62850;42.428;25.618;2024-02-28T09:49:55;26.60;;;13.20;;
74415;SDS011;62850;42.428;25.618;2024-02-28T09:52:24;24.48;;;11.63;;
74415;SDS011;62850;42.428;25.618;2024-02-28T09:54:50;26.83;;;11.70;;
74415;SDS011;62850;42.428;25.618;2024-02-28T09:57:15;22.88;;;10.85;;
74415;SDS011;62850;42.428;25.618;2024-02-28T09:59:41;28.83;;;12.18;;
74415;SDS011;62850;42.428;25.618;2024-02-28T10:02:08;25.67;;;12.00;;
74415;SDS011;62850;42.428;25.618;2024-02-28T10:04:35;29.92;;;12.52;;
74415;SDS011;62850;42.428;25.618;2024-02-28T10:07:14;28.20;;;12.38;;
74415;SDS011;62850;42.428;25.618;2024-02-28T10:09:40;33.33;;;12.52;;
74415;SDS011;62850;42.428;25.618;2024-02-28T10:12:06;32.00;;;13.60;;
74415;SDS011;62850;42.428;25.618;2024-02-28T10:14:31;27.83;;;12.77;;
74415;SDS011;62850;42.428;25.618;2024-02-28T10:16:57;26.20;;;11.95;;
74415;SDS011;62850;42.428;25.618;2024-02-28T10:19:22;25.85;;;12.98;;
74415;SDS011;62850;42.428;25.618;2024-02-28T10:21:48;26.17;;;14.68;;
74415;SDS011;62850;42.428;25.618;2024-02-28T10:24:13;30.80;;;14.25;;
74415;SDS011;62850;42.428;25.618;2024-02-28T10:26:43;29.83;;;12.85;;
74415;SDS011;62850;42.428;25.618;2024-02-28T10:29:09;28.02;;;12.80;;
74415;SDS011;62850;42.428;25.618;2024-02-28T10:31:35;29.02;;;12.93;;
74415;SDS011;62850;42.428;25.618;2024-02-28T10:34:01;25.05;;;12.23;;
74415;SDS011;62850;42.428;25.618;2024-02-28T10:36:27;28.00;;;12.88;;
74415;SDS011;62850;42.428;25.618;2024-02-28T10:38:56;26.70;;;11.43;;
74415;SDS011;62850;42.428;25.618;2024-02-28T10:41:24;26.05;;;12.27;;
74415;SDS011;62850;42.428;25.618;2024-02-28T10:43:51;26.48;;;13.10;;
74415;SDS011;62850;42.428;25.618;2024-02-28T10:46:17;29.65;;;13.98;;
74415;SDS011;62850;42.428;25.618;2024-02-28T10:48:45;26.75;;;12.45;;
74415;SDS011;62850;42.428;25.618;2024-02-28T10:51:13;29.13;;;12.93;;
74415;SDS011;62850;42.428;25.618;2024-02-28T10:53:41;23.63;;;12.65;;
74415;SDS011;62850;42.428;25.618;2024-02-28T10:56:09;27.10;;;12.88;;
74415;SDS011;62850;42.428;25.618;2024-02-28T10:58:36;24.67;;;12.05;;
74415;SDS011;62850;42.428;25.618;2024-02-28T11:01:09;31.88;;;12.55;;
74415;SDS011;62850;42.428;25.618;2024-02-28T11:03:35;29.60;;;12.25;;
74415;SDS011;62850;42.428;25.618;2024-02-28T11:06:01;22.73;;;12.40;;
74415;SDS011;62850;42.428;25.618;2024-02-28T11:08:27;26.33;;;12.90;;
74415;SDS011;62850;42.428;25.618;2024-02-28T11:10:58;26.17;;;12.75;;
74415;SDS011;62850;42.428;25.618;2024-02-28T11:13:25;25.45;;;12.93;;
74415;SDS011;62850;42.428;25.618;2024-02-28T11:15:52;27.63;;;13.98;;
74415;SDS011;62850;42.428;25.618;2024-02-28T11:18:20;25.77;;;13.52;;
74415;SDS011;62850;42.428;25.618;2024-02-28T11:20:46;28.58;;;14.40;;
74415;SDS011;62850;42.428;25.618;2024-02-28T11:23:13;26.92;;;13.23;;
74415;SDS011;62850;42.428;25.618;2024-02-28T11:25:40;21.85;;;12.02;;
74415;SDS011;62850;42.428;25.618;2024-02-28T11:28:05;27.63;;;12.60;;
74415;SDS011;62850;42.428;25.618;2024-02-28T11:30:32;21.25;;;11.90;;
74415;SDS011;62850;42.428;25.618;2024-02-28T11:32:57;24.65;;;12.20;;
74415;SDS011;62850;42.428;25.618;2024-02-28T11:35:24;24.38;;;11.50;;
74415;SDS011;62850;42.428;25.618;2024-02-28T11:37:56;21.48;;;11.25;;
74415;SDS011;62850;42.428;25.618;2024-02-28T11:40:24;28.42;;;12.55;;
74415;SDS011;62850;42.428;25.618;2024-02-28T11:42:51;24.27;;;13.20;;
74415;SDS011;62850;42.428;25.618;2024-02-28T11:45:20;20.75;;;12.35;;
74415;SDS011;62850;42.428;25.618;2024-02-28T11:47:46;24.38;;;12.68;;
74415;SDS011;62850;42.428;25.618;2024-02-28T11:50:12;21.38;;;10.45;;
74415;SDS011;62850;42.428;25.618;2024-02-28T11:52:39;24.65;;;11.25;;
74415;SDS011;62850;42.428;25.618;2024-02-28T11:55:05;20.27;;;12.13;;
74415;SDS011;62850;42.428;25.618;2024-02-28T11:57:31;19.63;;;10.77;;
74415;SDS011;62850;42.428;25.618;2024-02-28T12:00:02;20.35;;;11.35;;
74415;SDS011;62850;42.428;25.618;2024-02-28T12:02:29;18.40;;;10.07;;
74415;SDS011;62850;42.428;25.618;2024-02-28T12:04:55;21.88;;;10.25;;
74415;SDS011;62850;42.428;25.618;2024-02-28T12:07:25;18.02;;;10.18;;
74415;SDS011;62850;42.428;25.618;2024-02-28T12:09:53;24.00;;;10.77;;
74415;SDS011;62850;42.428;25.618;2024-02-28T12:12:19;21.90;;;10.00;;
74415;SDS011;62850;42.428;25.618;2024-02-28T12:14:45;19.23;;;9.80;;
74415;SDS011;62850;42.428;25.618;2024-02-28T12:17:11;20.73;;;11.05;;
74415;SDS011;62850;42.428;25.618;2024-02-28T12:19:36;22.52;;;9.98;;
74415;SDS011;62850;42.428;25.618;2024-02-28T12:22:02;19.52;;;10.18;;
74415;SDS011;62850;42.428;25.618;2024-02-28T12:24:29;20.40;;;9.88;;
74415;SDS011;62850;42.428;25.618;2024-02-28T12:26:54;19.52;;;11.50;;
74415;SDS011;62850;42.428;25.618;2024-02-28T12:29:20;20.80;;;10.88;;
74415;SDS011;62850;42.428;25.618;2024-02-28T12:31:45;22.55;;;10.57;;
74415;SDS011;62850;42.428;25.618;2024-02-28T12:34:10;18.92;;;10.18;;
74415;SDS011;62850;42.428;25.618;2024-02-28T12:36:36;16.98;;;10.25;;
74415;SDS011;62850;42.428;25.618;2024-02-28T12:39:02;25.95;;;10.30;;
74415;SDS011;62850;42.428;25.618;2024-02-28T12:41:28;21.77;;;11.25;;
74415;SDS011;62850;42.428;25.618;2024-02-28T12:43:53;17.55;;;10.35;;
74415;SDS011;62850;42.428;25.618;2024-02-28T12:46:19;19.65;;;10.00;;
74415;SDS011;62850;42.428;25.618;2024-02-28T12:48:44;18.38;;;8.52;;
74415;SDS011;62850;42.428;25.618;2024-02-28T12:51:13;19.35;;;7.93;;
74415;SDS011;62850;42.428;25.618;2024-02-28T12:54:00;16.73;;;8.48;;
74415;SDS011;62850;42.428;25.618;2024-02-28T12:56:25;15.48;;;8.75;;
74415;SDS011;62850;42.428;25.618;2024-02-28T12:58:51;15.55;;;7.30;;
74415;SDS011;62850;42.428;25.618;2024-02-28T13:01:16;15.50;;;7.70;;
74415;SDS011;62850;42.428;25.618;2024-02-28T13:03:42;18.20;;;8.13;;
74415;SDS011;62850;42.428;25.618;2024-02-28T13:06:07;17.50;;;7.65;;
74415;SDS011;62850;42.428;25.618;2024-02-28T13:08:33;15.52;;;7.38;;
74415;SDS011;62850;42.428;25.618;2024-02-28T13:10:58;17.80;;;7.05;;
74415;SDS011;62850;42.428;25.618;2024-02-28T13:13:23;19.25;;;7.80;;
74415;SDS011;62850;42.428;25.618;2024-02-28T13:15:49;13.68;;;7.25;;
74415;SDS011;62850;42.428;25.618;2024-02-28T13:18:14;15.95;;;6.88;;
74415;SDS011;62850;42.428;25.618;2024-02-28T13:20:40;17.67;;;8.48;;
74415;SDS011;62850;42.428;25.618;2024-02-28T13:23:05;18.38;;;7.18;;
74415;SDS011;62850;42.428;25.618;2024-02-28T13:25:31;15.45;;;7.03;;
74415;SDS011;62850;42.428;25.618;2024-02-28T13:27:56;20.45;;;8.10;;
74415;SDS011;62850;42.428;25.618;2024-02-28T13:30:22;12.23;;;7.00;;
74415;SDS011;62850;42.428;25.618;2024-02-28T13:32:47;19.00;;;7.30;;
74415;SDS011;62850;42.428;25.618;2024-02-28T13:35:12;14.60;;;6.97;;
74415;SDS011;62850;42.428;25.618;2024-02-28T13:37:38;13.27;;;6.47;;
74415;SDS011;62850;42.428;25.618;2024-02-28T13:40:05;19.33;;;6.50;;
74415;SDS011;62850;42.428;25.618;2024-02-28T13:42:32;13.48;;;5.75;;
74415;SDS011;62850;42.428;25.618;2024-02-28T13:44:57;15.25;;;6.68;;
74415;SDS011;62850;42.428;25.618;2024-02-28T13:47:23;13.05;;;6.50;;
74415;SDS011;62850;42.428;25.618;2024-02-28T13:49:48;13.80;;;6.97;;
74415;SDS011;62850;42.428;25.618;2024-02-28T13:52:15;15.73;;;6.63;;
74415;SDS011;62850;42.428;25.618;2024-02-28T13:54:40;19.13;;;6.78;;
74415;SDS011;62850;42.428;25.618;2024-02-28T13:57:06;18.17;;;6.40;;
74415;SDS011;62850;42.428;25.618;2024-02-28T13:59:32;14.48;;;6.40;;
74415;SDS011;62850;42.428;25.618;2024-02-28T14:01:57;16.73;;;7.53;;
74415;SDS011;62850;42.428;25.618;2024-02-28T14:04:24;13.82;;;6.47;;
74415;SDS011;62850;42.428;25.618;2024-02-28T14:06:50;16.45;;;6.03;;
74415;SDS011;62850;42.428;25.618;2024-02-28T14:09:16;13.23;;;6.32;;